createdAt,value
2019-01-27T00:00:05.554Z,985.39
2019-01-27T00:01:05.512Z,985.40
2019-01-27T00:02:05.502Z,985.43
2019-01-27T00:03:05.468Z,985.38
2019-01-27T00:04:05.402Z,985.37
2019-01-27T00:05:05.362Z,985.37
2019-01-27T00:06:05.327Z,985.43
2019-01-27T00:07:05.308Z,985.45
2019-01-27T00:08:05.254Z,985.32
2019-01-27T00:09:05.238Z,985.30
2019-01-27T00:10:05.172Z,985.26
2019-01-27T00:11:05.148Z,985.23
2019-01-27T00:12:05.106Z,985.19
2019-01-27T00:13:05.128Z,985.18
2019-01-27T00:14:05.040Z,985.23
2019-01-27T00:15:05.033Z,985.11
2019-01-27T00:16:04.973Z,985.14
2019-01-27T00:17:04.913Z,985.04
2019-01-27T00:18:04.869Z,985.10
2019-01-27T00:19:04.840Z,985.02
2019-01-27T00:20:04.823Z,985.00
2019-01-27T00:21:04.774Z,985.04
2019-01-27T00:22:04.734Z,985.02
2019-01-27T00:23:04.689Z,984.97
2019-01-27T00:24:04.695Z,984.91
2019-01-27T00:25:04.627Z,984.85
2019-01-27T00:26:04.584Z,984.90
2019-01-27T00:27:04.548Z,984.92
2019-01-27T00:28:04.518Z,984.86
2019-01-27T00:29:04.463Z,984.91
2019-01-27T00:30:04.426Z,984.85
2019-01-27T00:31:05.088Z,984.88
2019-01-27T00:32:04.354Z,984.84
2019-01-27T00:33:05.085Z,984.80
2019-01-27T00:34:04.285Z,984.74
2019-01-27T00:35:04.250Z,984.62
2019-01-27T00:36:04.225Z,984.78
2019-01-27T00:37:04.173Z,984.73
2019-01-27T00:38:04.134Z,984.66
2019-01-27T00:39:04.095Z,984.65
2019-01-27T00:40:04.054Z,984.61
2019-01-27T00:41:04.024Z,984.58
2019-01-27T00:42:04.003Z,984.62
2019-01-27T00:43:03.968Z,984.53
2019-01-27T00:44:03.931Z,984.49
2019-01-27T00:45:03.876Z,984.55
2019-01-27T00:46:03.853Z,984.46
2019-01-27T00:47:03.793Z,984.45
2019-01-27T00:48:03.755Z,984.41
2019-01-27T00:49:03.720Z,984.45
2019-01-27T00:50:03.672Z,984.42
2019-01-27T00:51:03.669Z,984.37
2019-01-27T00:52:03.599Z,984.30
2019-01-27T00:53:03.561Z,984.32
2019-01-27T00:54:03.527Z,984.30
2019-01-27T00:55:03.492Z,984.31
2019-01-27T00:56:03.502Z,984.25
2019-01-27T00:57:03.471Z,984.26
2019-01-27T00:58:03.414Z,984.25
2019-01-27T00:59:03.346Z,984.22
2019-01-27T01:00:03.328Z,984.11
2019-01-27T01:01:03.310Z,984.14
2019-01-27T01:02:03.260Z,984.10
2019-01-27T01:03:03.190Z,984.09
2019-01-27T01:04:03.158Z,984.00
2019-01-27T01:05:03.151Z,984.09
2019-01-27T01:06:03.087Z,984.06
2019-01-27T01:07:03.047Z,984.03
2019-01-27T01:08:03.023Z,984.00
2019-01-27T01:09:02.970Z,984.03
2019-01-27T01:10:02.941Z,983.98
2019-01-27T01:11:02.891Z,983.94
2019-01-27T01:12:02.889Z,984.00
2019-01-27T01:13:02.861Z,983.96
2019-01-27T01:14:02.804Z,983.96
2019-01-27T01:15:02.760Z,983.95
2019-01-27T01:16:02.728Z,983.77
2019-01-27T01:17:02.671Z,983.81
2019-01-27T01:18:02.651Z,983.84
2019-01-27T01:19:02.599Z,983.92
2019-01-27T01:20:02.560Z,983.89
2019-01-27T01:21:02.518Z,983.72
2019-01-27T01:22:02.485Z,983.88
2019-01-27T01:23:02.448Z,983.75
2019-01-27T01:24:02.414Z,983.87
2019-01-27T01:25:02.366Z,983.83
2019-01-27T01:26:02.339Z,983.80
2019-01-27T01:27:02.297Z,983.79
2019-01-27T01:28:02.264Z,983.77
2019-01-27T01:29:02.234Z,983.76
2019-01-27T01:30:02.191Z,983.75
2019-01-27T01:31:02.149Z,983.71
2019-01-27T01:32:02.112Z,983.58
2019-01-27T01:33:02.067Z,983.64
2019-01-27T01:34:02.037Z,983.59
2019-01-27T01:35:01.999Z,983.65
2019-01-27T01:36:01.964Z,983.61
2019-01-27T01:37:01.930Z,983.49
2019-01-27T01:38:01.935Z,983.59
2019-01-27T01:39:01.850Z,983.58
2019-01-27T01:40:01.828Z,983.51
2019-01-27T01:41:01.831Z,983.55
2019-01-27T01:42:01.766Z,983.51
2019-01-27T01:43:01.720Z,983.44
2019-01-27T01:44:01.706Z,983.42
2019-01-27T01:45:01.631Z,983.44
2019-01-27T01:46:01.583Z,983.35
2019-01-27T01:47:01.553Z,983.36
2019-01-27T01:48:01.505Z,983.41
2019-01-27T01:49:01.482Z,983.24
2019-01-27T01:50:01.444Z,983.29
2019-01-27T01:51:01.446Z,983.31
2019-01-27T01:52:01.368Z,983.24
2019-01-27T01:53:01.321Z,983.20
2019-01-27T01:54:01.289Z,983.10
2019-01-27T01:55:01.252Z,983.12
2019-01-27T01:56:01.219Z,983.12
2019-01-27T01:57:01.182Z,982.99
2019-01-27T01:58:01.201Z,982.95
2019-01-27T01:59:01.101Z,983.02
2019-01-27T02:00:01.070Z,983.04
2019-01-27T02:01:01.021Z,983.06
2019-01-27T02:02:00.987Z,982.98
2019-01-27T02:03:00.955Z,982.98
2019-01-27T02:04:00.925Z,983.00
2019-01-27T02:05:00.896Z,982.91
2019-01-27T02:06:00.848Z,982.88
2019-01-27T02:07:00.800Z,982.92
2019-01-27T02:08:00.777Z,982.85
2019-01-27T02:09:00.736Z,982.87
2019-01-27T02:10:00.686Z,982.97
2019-01-27T02:11:00.647Z,982.82
2019-01-27T02:12:00.604Z,982.72
2019-01-27T02:13:01.026Z,982.72
2019-01-27T02:14:00.557Z,982.76
2019-01-27T02:15:00.500Z,982.73
2019-01-27T02:16:00.455Z,982.75
2019-01-27T02:17:00.422Z,982.60
2019-01-27T02:18:00.411Z,982.60
2019-01-27T02:19:00.347Z,982.54
2019-01-27T02:20:00.305Z,982.57
2019-01-27T02:21:00.276Z,982.53
2019-01-27T02:22:00.252Z,982.51
2019-01-27T02:23:00.194Z,982.50
2019-01-27T02:24:00.161Z,982.48
2019-01-27T02:25:00.139Z,982.42
2019-01-27T02:26:00.095Z,982.36
2019-01-27T02:27:00.075Z,982.36
2019-01-27T02:28:00.003Z,982.26
2019-01-27T02:28:59.963Z,982.21
2019-01-27T02:29:59.942Z,982.25
2019-01-27T02:30:59.917Z,982.17
2019-01-27T02:31:59.880Z,982.30
2019-01-27T02:32:59.838Z,982.09
2019-01-27T02:33:59.798Z,982.20
2019-01-27T02:34:59.743Z,982.05
2019-01-27T02:35:59.704Z,982.17
2019-01-27T02:36:59.681Z,982.04
2019-01-27T02:37:59.632Z,982.15
2019-01-27T02:38:59.592Z,982.04
2019-01-27T02:39:59.559Z,982.13
2019-01-27T02:40:59.534Z,982.02
2019-01-27T02:41:59.480Z,982.05
2019-01-27T02:42:59.474Z,982.00
2019-01-27T02:43:59.426Z,981.95
2019-01-27T02:44:59.370Z,981.90
2019-01-27T02:45:59.349Z,981.99
2019-01-27T02:46:59.317Z,981.97
2019-01-27T02:47:59.291Z,981.93
2019-01-27T02:48:59.217Z,981.93
2019-01-27T02:49:59.178Z,981.97
2019-01-27T02:50:59.143Z,981.92
2019-01-27T02:51:59.107Z,981.90
2019-01-27T02:52:59.069Z,981.83
2019-01-27T02:53:59.032Z,981.80
2019-01-27T02:54:58.992Z,981.73
2019-01-27T02:55:58.975Z,981.81
2019-01-27T02:56:58.912Z,981.65
2019-01-27T02:57:58.878Z,981.81
2019-01-27T02:58:58.917Z,981.84
2019-01-27T02:59:58.831Z,981.75
2019-01-27T03:00:58.771Z,981.78
2019-01-27T03:01:58.736Z,981.80
2019-01-27T03:02:58.723Z,981.71
2019-01-27T03:03:58.656Z,981.69
2019-01-27T03:04:58.617Z,981.72
2019-01-27T03:05:58.587Z,981.67
2019-01-27T03:06:58.551Z,981.63
2019-01-27T03:07:58.526Z,981.65
2019-01-27T03:08:58.468Z,981.63
2019-01-27T03:09:58.437Z,981.57
2019-01-27T03:10:58.412Z,981.63
2019-01-27T03:11:58.368Z,981.57
2019-01-27T03:12:58.342Z,981.56
2019-01-27T03:13:58.293Z,981.54
2019-01-27T03:14:58.259Z,981.59
2019-01-27T03:15:58.223Z,981.53
2019-01-27T03:16:58.185Z,981.45
2019-01-27T03:17:58.134Z,981.37
2019-01-27T03:18:58.090Z,981.37
2019-01-27T03:19:58.076Z,981.38
2019-01-27T03:20:58.018Z,981.36
2019-01-27T03:21:57.989Z,981.38
2019-01-27T03:22:57.936Z,981.35
2019-01-27T03:23:57.918Z,981.33
2019-01-27T03:24:57.886Z,981.31
2019-01-27T03:25:57.823Z,981.30
2019-01-27T03:26:57.795Z,981.21
2019-01-27T03:27:57.780Z,981.25
2019-01-27T03:28:57.718Z,981.16
2019-01-27T03:29:57.683Z,981.23
2019-01-27T03:30:57.649Z,981.15
2019-01-27T03:31:57.615Z,981.19
2019-01-27T03:32:57.596Z,981.17
2019-01-27T03:33:57.630Z,981.07
2019-01-27T03:34:57.496Z,981.09
2019-01-27T03:35:57.450Z,981.08
2019-01-27T03:36:57.422Z,981.09
2019-01-27T03:37:57.401Z,980.98
2019-01-27T03:38:57.361Z,980.99
2019-01-27T03:39:57.309Z,981.06
2019-01-27T03:40:57.267Z,980.99
2019-01-27T03:41:57.230Z,980.91
2019-01-27T03:42:57.198Z,981.00
2019-01-27T03:43:57.166Z,981.01
2019-01-27T03:44:57.143Z,980.90
2019-01-27T03:45:57.078Z,980.91
2019-01-27T03:46:57.053Z,980.86
2019-01-27T03:47:57.002Z,980.90
2019-01-27T03:48:56.973Z,980.86
2019-01-27T03:49:56.933Z,980.83
2019-01-27T03:50:56.902Z,980.67
2019-01-27T03:51:56.855Z,980.73
2019-01-27T03:52:56.844Z,980.67
2019-01-27T03:53:56.812Z,980.72
2019-01-27T03:54:56.750Z,980.57
2019-01-27T03:55:56.714Z,980.63
2019-01-27T03:56:56.671Z,980.61
2019-01-27T03:57:56.662Z,980.54
2019-01-27T03:58:56.592Z,980.57
2019-01-27T03:59:56.558Z,980.53
2019-01-27T04:00:56.519Z,980.47
2019-01-27T04:01:56.488Z,980.44
2019-01-27T04:02:56.453Z,980.48
2019-01-27T04:03:56.410Z,980.47
2019-01-27T04:04:56.376Z,980.42
2019-01-27T04:05:56.334Z,980.34
2019-01-27T04:06:56.313Z,980.39
2019-01-27T04:07:56.259Z,980.37
2019-01-27T04:08:56.241Z,980.34
2019-01-27T04:09:56.181Z,980.40
2019-01-27T04:10:56.145Z,980.34
2019-01-27T04:11:56.109Z,980.30
2019-01-27T04:12:56.073Z,980.16
2019-01-27T04:13:56.022Z,980.28
2019-01-27T04:14:55.991Z,980.22
2019-01-27T04:15:55.955Z,980.24
2019-01-27T04:16:55.911Z,980.24
2019-01-27T04:17:55.890Z,980.22
2019-01-27T04:18:55.858Z,980.23
2019-01-27T04:19:56.592Z,980.19
2019-01-27T04:20:55.766Z,980.09
2019-01-27T04:21:56.588Z,980.09
2019-01-27T04:22:55.697Z,980.08
2019-01-27T04:23:55.653Z,980.11
2019-01-27T04:24:55.649Z,980.06
2019-01-27T04:25:55.581Z,980.13
2019-01-27T04:26:55.541Z,980.12
2019-01-27T04:27:55.505Z,980.08
2019-01-27T04:28:55.462Z,979.98
2019-01-27T04:29:55.427Z,979.98
2019-01-27T04:30:55.391Z,979.96
2019-01-27T04:31:55.354Z,979.97
2019-01-27T04:32:55.322Z,980.01
2019-01-27T04:33:55.281Z,979.98
2019-01-27T04:34:55.247Z,979.95
2019-01-27T04:35:55.202Z,979.84
2019-01-27T04:36:55.162Z,979.90
2019-01-27T04:37:55.126Z,979.78
2019-01-27T04:38:55.089Z,979.88
2019-01-27T04:39:55.056Z,979.86
2019-01-27T04:40:55.008Z,979.79
2019-01-27T04:41:55.003Z,979.88
2019-01-27T04:42:54.958Z,979.89
2019-01-27T04:43:56.483Z,979.81
2019-01-27T04:44:54.864Z,979.82
2019-01-27T04:45:54.830Z,979.81
2019-01-27T04:46:54.813Z,979.77
2019-01-27T04:47:54.759Z,979.73
2019-01-27T04:48:54.714Z,979.86
2019-01-27T04:49:54.677Z,979.85
2019-01-27T04:50:54.639Z,979.84
2019-01-27T04:51:54.598Z,979.74
2019-01-27T04:52:54.577Z,979.74
2019-01-27T04:53:54.539Z,979.74
2019-01-27T04:54:54.488Z,979.82
2019-01-27T04:55:54.461Z,979.80
2019-01-27T04:56:54.424Z,979.67
2019-01-27T04:57:54.377Z,979.68
2019-01-27T04:58:54.340Z,979.65
2019-01-27T04:59:54.338Z,979.65
2019-01-27T05:00:54.270Z,979.71
2019-01-27T05:01:54.233Z,979.71
2019-01-27T05:02:54.188Z,979.59
2019-01-27T05:03:54.150Z,979.56
2019-01-27T05:04:54.180Z,979.55
2019-01-27T05:05:54.068Z,979.65
2019-01-27T05:06:54.038Z,979.63
2019-01-27T05:07:54.013Z,979.64
2019-01-27T05:08:53.967Z,979.56
2019-01-27T05:09:53.931Z,979.52
2019-01-27T05:10:53.892Z,979.54
2019-01-27T05:11:53.849Z,979.56
2019-01-27T05:12:53.815Z,979.46
2019-01-27T05:13:53.778Z,979.48
2019-01-27T05:14:53.744Z,979.52
2019-01-27T05:15:53.699Z,979.52
2019-01-27T05:16:53.666Z,979.54
2019-01-27T05:17:53.631Z,979.58
2019-01-27T05:18:53.631Z,979.47
2019-01-27T05:19:53.553Z,979.51
2019-01-27T05:20:53.516Z,979.53
2019-01-27T05:21:53.478Z,979.42
2019-01-27T05:22:53.462Z,979.51
2019-01-27T05:23:53.402Z,979.55
2019-01-27T05:24:53.366Z,979.44
2019-01-27T05:25:53.330Z,979.37
2019-01-27T05:26:53.288Z,979.46
2019-01-27T05:27:53.255Z,979.42
2019-01-27T05:28:53.250Z,979.39
2019-01-27T05:29:53.198Z,979.38
2019-01-27T05:30:53.187Z,979.33
2019-01-27T05:31:53.098Z,979.37
2019-01-27T05:32:53.066Z,979.28
2019-01-27T05:33:53.039Z,979.28
2019-01-27T05:34:52.990Z,979.26
2019-01-27T05:35:52.958Z,979.23
2019-01-27T05:36:52.981Z,979.24
2019-01-27T05:37:52.876Z,979.19
2019-01-27T05:38:52.878Z,979.18
2019-01-27T05:39:52.802Z,979.13
2019-01-27T05:40:52.762Z,979.04
2019-01-27T05:41:52.730Z,979.12
2019-01-27T05:42:52.706Z,979.08
2019-01-27T05:43:52.685Z,979.18
2019-01-27T05:44:52.647Z,979.04
2019-01-27T05:45:52.603Z,979.10
2019-01-27T05:46:52.543Z,979.07
2019-01-27T05:47:52.498Z,979.05
2019-01-27T05:48:52.461Z,979.11
2019-01-27T05:49:52.419Z,979.08
2019-01-27T05:50:52.394Z,978.93
2019-01-27T05:51:52.380Z,978.98
2019-01-27T05:52:52.309Z,978.96
2019-01-27T05:53:52.277Z,978.97
2019-01-27T05:54:52.233Z,978.97
2019-01-27T05:55:52.193Z,978.97
2019-01-27T05:56:56.706Z,978.98
2019-01-27T05:57:52.135Z,978.87
2019-01-27T05:58:52.084Z,978.91
2019-01-27T05:59:52.046Z,978.90
2019-01-27T06:00:52.005Z,978.92
2019-01-27T06:01:51.970Z,978.90
2019-01-27T06:02:51.961Z,978.89
2019-01-27T06:03:51.915Z,978.86
2019-01-27T06:04:51.855Z,978.86
2019-01-27T06:05:51.825Z,978.82
2019-01-27T06:06:51.773Z,978.88
2019-01-27T06:07:51.776Z,978.79
2019-01-27T06:08:51.706Z,978.84
2019-01-27T06:09:51.663Z,978.83
2019-01-27T06:10:51.628Z,978.72
2019-01-27T06:11:51.588Z,978.73
2019-01-27T06:12:51.557Z,978.71
2019-01-27T06:13:51.510Z,978.71
2019-01-27T06:14:51.471Z,978.72
2019-01-27T06:15:51.426Z,978.72
2019-01-27T06:16:51.396Z,978.63
2019-01-27T06:17:51.368Z,978.70
2019-01-27T06:18:51.326Z,978.75
2019-01-27T06:19:51.278Z,978.67
2019-01-27T06:20:51.245Z,978.58
2019-01-27T06:21:51.205Z,978.69
2019-01-27T06:22:51.165Z,978.64
2019-01-27T06:23:51.130Z,978.61
2019-01-27T06:24:51.094Z,978.55
2019-01-27T06:25:51.054Z,978.58
2019-01-27T06:26:51.079Z,978.53
2019-01-27T06:27:51.004Z,978.56
2019-01-27T06:28:50.948Z,978.50
2019-01-27T06:29:50.898Z,978.42
2019-01-27T06:30:50.857Z,978.39
2019-01-27T06:31:50.824Z,978.39
2019-01-27T06:32:50.803Z,978.38
2019-01-27T06:33:50.746Z,978.36
2019-01-27T06:34:50.720Z,978.45
2019-01-27T06:35:50.671Z,978.50
2019-01-27T06:36:50.632Z,978.41
2019-01-27T06:37:50.602Z,978.34
2019-01-27T06:38:50.549Z,978.53
2019-01-27T06:39:50.551Z,978.68
2019-01-27T06:40:50.482Z,978.64
2019-01-27T06:41:50.438Z,978.69
2019-01-27T06:42:50.403Z,978.66
2019-01-27T06:43:50.367Z,978.68
2019-01-27T06:44:50.329Z,978.60
2019-01-27T06:45:50.293Z,978.59
2019-01-27T06:46:50.253Z,978.61
2019-01-27T06:47:50.214Z,978.58
2019-01-27T06:48:50.181Z,978.59
2019-01-27T06:49:50.138Z,978.51
2019-01-27T06:50:50.102Z,978.43
2019-01-27T06:51:50.082Z,978.44
2019-01-27T06:52:50.025Z,978.40
2019-01-27T06:53:50.002Z,978.40
2019-01-27T06:54:49.951Z,978.37
2019-01-27T06:55:49.908Z,978.39
2019-01-27T06:56:49.881Z,978.36
2019-01-27T06:57:49.839Z,978.34
2019-01-27T06:58:49.797Z,978.39
2019-01-27T06:59:49.757Z,978.40
2019-01-27T07:00:49.724Z,978.43
2019-01-27T07:01:49.679Z,978.47
2019-01-27T07:02:49.648Z,978.34
2019-01-27T07:03:49.605Z,978.40
2019-01-27T07:04:49.574Z,978.37
2019-01-27T07:05:49.548Z,978.41
2019-01-27T07:06:49.507Z,978.32
2019-01-27T07:07:49.454Z,978.35
2019-01-27T07:08:49.413Z,978.33
2019-01-27T07:09:49.373Z,978.33
2019-01-27T07:10:49.338Z,978.23
2019-01-27T07:11:49.318Z,978.29
2019-01-27T07:12:49.291Z,978.30
2019-01-27T07:13:49.221Z,978.23
2019-01-27T07:14:49.184Z,978.16
2019-01-27T07:15:49.151Z,978.27
2019-01-27T07:16:49.108Z,978.24
2019-01-27T07:17:49.070Z,978.23
2019-01-27T07:18:49.059Z,978.21
2019-01-27T07:19:48.996Z,978.21
2019-01-27T07:20:48.957Z,978.31
2019-01-27T07:21:48.934Z,978.21
2019-01-27T07:22:48.882Z,978.25
2019-01-27T07:23:50.092Z,978.23
2019-01-27T07:24:48.825Z,978.25
2019-01-27T07:25:48.773Z,978.28
2019-01-27T07:26:48.738Z,978.19
2019-01-27T07:27:48.704Z,978.29
2019-01-27T07:28:48.653Z,978.38
2019-01-27T07:29:48.617Z,978.32
2019-01-27T07:30:48.600Z,978.30
2019-01-27T07:31:48.533Z,978.30
2019-01-27T07:32:48.497Z,978.28
2019-01-27T07:33:48.460Z,978.32
2019-01-27T07:34:49.362Z,978.30
2019-01-27T07:35:48.399Z,978.28
2019-01-27T07:36:48.373Z,978.24
2019-01-27T07:37:48.351Z,978.26
2019-01-27T07:38:48.281Z,978.15
2019-01-27T07:39:48.244Z,978.16
2019-01-27T07:40:48.194Z,978.21
2019-01-27T07:41:48.179Z,978.16
2019-01-27T07:42:48.118Z,978.20
2019-01-27T07:43:48.081Z,978.14
2019-01-27T07:44:48.081Z,978.16
2019-01-27T07:45:48.016Z,978.19
2019-01-27T07:46:47.996Z,978.31
2019-01-27T07:47:48.004Z,978.19
2019-01-27T07:48:47.897Z,978.13
2019-01-27T07:49:47.863Z,978.10
2019-01-27T07:50:47.846Z,978.09
2019-01-27T07:51:47.787Z,977.96
2019-01-27T07:52:47.766Z,978.11
2019-01-27T07:53:47.704Z,978.10
2019-01-27T07:54:47.677Z,978.08
2019-01-27T07:55:47.651Z,977.96
2019-01-27T07:56:47.856Z,977.94
2019-01-27T07:57:47.563Z,978.00
2019-01-27T07:58:47.542Z,978.01
2019-01-27T07:59:47.508Z,977.94
2019-01-27T08:00:47.448Z,978.13
2019-01-27T08:01:47.422Z,978.08
2019-01-27T08:02:47.389Z,978.02
2019-01-27T08:03:47.350Z,977.96
2019-01-27T08:04:47.349Z,977.99
2019-01-27T08:05:47.283Z,977.92
2019-01-27T08:06:47.254Z,977.96
2019-01-27T08:07:47.185Z,977.94
2019-01-27T08:08:48.092Z,977.91
2019-01-27T08:09:47.115Z,977.88
2019-01-27T08:10:49.676Z,978.01
2019-01-27T08:11:47.040Z,978.03
2019-01-27T08:12:47.666Z,977.94
2019-01-27T08:13:46.970Z,977.93
2019-01-27T08:14:46.930Z,977.97
2019-01-27T08:15:46.894Z,977.99
2019-01-27T08:16:46.866Z,977.97
2019-01-27T08:17:46.829Z,978.03
2019-01-27T08:18:46.779Z,978.03
2019-01-27T08:22:46.659Z,978.03
2019-01-27T08:44:45.912Z,977.80
2019-01-27T08:45:45.873Z,977.79
2019-01-27T08:46:45.840Z,977.78
2019-01-27T08:51:45.651Z,977.77
2019-01-27T08:52:45.649Z,977.77
2019-01-27T08:55:45.531Z,977.77
2019-01-27T08:56:45.477Z,977.69
2019-01-27T08:57:45.445Z,977.75
2019-01-27T08:59:45.363Z,977.72
2019-01-27T09:01:45.306Z,977.72
2019-01-27T09:03:45.227Z,977.72
2019-01-27T09:04:45.195Z,977.66
2019-01-27T09:07:45.087Z,977.64
2019-01-27T09:08:45.047Z,977.61
2019-01-27T09:09:45.008Z,977.61
2019-01-27T09:10:44.975Z,977.56
2019-01-27T09:11:44.928Z,977.55
2019-01-27T09:12:44.914Z,977.59
2019-01-27T09:13:44.862Z,977.58
2019-01-27T09:14:44.848Z,977.52
2019-01-27T09:15:44.807Z,977.56
2019-01-27T09:16:44.758Z,977.49
2019-01-27T09:17:44.718Z,977.57
2019-01-27T09:18:44.683Z,977.56
2019-01-27T09:19:44.641Z,977.54
2019-01-27T09:20:44.612Z,977.53
2019-01-27T09:21:44.578Z,977.59
2019-01-27T09:22:44.556Z,977.58
2019-01-27T09:23:44.513Z,977.58
2019-01-27T09:25:44.446Z,977.51
2019-01-27T09:28:44.351Z,977.50
2019-01-27T09:30:44.270Z,977.47
2019-01-27T09:32:44.185Z,977.44
2019-01-27T09:33:44.177Z,977.41
2019-01-27T09:35:44.069Z,977.48
2019-01-27T09:36:44.039Z,977.40
2019-01-27T09:37:44.056Z,977.24
2019-01-27T09:38:43.977Z,977.44
2019-01-27T09:39:43.936Z,977.44
2019-01-27T09:40:43.893Z,977.38
2019-01-27T09:41:43.856Z,977.33
2019-01-27T09:42:43.841Z,977.34
2019-01-27T09:43:43.843Z,977.41
2019-01-27T09:44:43.750Z,977.40
2019-01-27T09:45:43.717Z,977.37
2019-01-27T09:46:43.694Z,977.36
2019-01-27T09:47:43.641Z,977.37
2019-01-27T09:48:43.683Z,977.38
2019-01-27T09:49:43.569Z,977.36
2019-01-27T09:50:43.553Z,977.31
2019-01-27T09:51:43.498Z,977.35
2019-01-27T09:52:43.470Z,977.42
2019-01-27T09:53:43.423Z,977.38
2019-01-27T09:55:44.119Z,977.34
2019-01-27T09:56:43.347Z,977.33
2019-01-27T09:57:43.278Z,977.37
2019-01-27T09:58:43.260Z,977.28
2019-01-27T09:59:43.216Z,977.29
2019-01-27T10:00:43.165Z,977.25
2019-01-27T10:01:43.135Z,977.31
2019-01-27T10:02:43.113Z,977.29
2019-01-27T10:03:43.068Z,977.29
2019-01-27T10:04:43.027Z,977.33
2019-01-27T10:05:43.023Z,977.31
2019-01-27T10:06:42.960Z,977.33
2019-01-27T10:07:42.915Z,977.29
2019-01-27T10:08:43.044Z,977.26
2019-01-27T10:09:42.865Z,977.32
2019-01-27T10:10:43.337Z,977.30
2019-01-27T10:11:42.779Z,977.29
2019-01-27T10:12:42.738Z,977.30
2019-01-27T10:13:42.700Z,977.25
2019-01-27T10:14:42.665Z,977.24
2019-01-27T10:15:42.629Z,977.00
2019-01-27T10:16:42.610Z,977.16
2019-01-27T10:17:42.554Z,977.18
2019-01-27T10:18:42.523Z,977.14
2019-01-27T10:19:42.498Z,977.22
2019-01-27T10:20:42.460Z,977.19
2019-01-27T10:21:42.430Z,977.18
2019-01-27T10:22:42.375Z,977.18
2019-01-27T10:23:42.343Z,977.22
2019-01-27T10:24:42.315Z,977.11
2019-01-27T10:25:42.264Z,977.11
2019-01-27T10:26:42.226Z,977.17
2019-01-27T10:27:42.205Z,977.18
2019-01-27T10:28:42.155Z,977.18
2019-01-27T10:29:42.157Z,977.22
2019-01-27T10:30:42.118Z,977.27
2019-01-27T10:31:42.063Z,977.07
2019-01-27T10:32:42.017Z,977.25
2019-01-27T10:33:41.978Z,977.14
2019-01-27T10:34:41.961Z,977.18
2019-01-27T10:35:42.882Z,977.19
2019-01-27T10:36:42.199Z,977.13
2019-01-27T10:37:41.831Z,977.15
2019-01-27T10:38:42.189Z,977.10
2019-01-27T10:39:42.189Z,977.12
2019-01-27T10:40:42.200Z,977.09
2019-01-27T10:41:41.691Z,977.03
2019-01-27T10:42:41.655Z,977.09
2019-01-27T10:43:42.298Z,976.90
2019-01-27T10:44:41.589Z,977.03
2019-01-27T10:45:41.554Z,977.03
2019-01-27T10:46:41.515Z,977.05
2019-01-27T10:47:41.472Z,977.04
2019-01-27T10:48:41.432Z,976.99
2019-01-27T10:49:41.399Z,977.15
2019-01-27T10:50:41.369Z,977.00
2019-01-27T10:51:41.353Z,977.07
2019-01-27T10:52:41.298Z,977.00
2019-01-27T10:53:41.268Z,977.08
2019-01-27T10:54:41.238Z,977.01
2019-01-27T10:55:41.195Z,977.02
2019-01-27T10:56:41.166Z,976.90
2019-01-27T10:57:42.467Z,976.95
2019-01-27T10:58:41.084Z,977.00
2019-01-27T10:59:41.081Z,976.92
2019-01-27T11:00:41.039Z,976.85
2019-01-27T11:01:41.346Z,976.86
2019-01-27T11:02:40.941Z,976.87
2019-01-27T11:03:40.917Z,976.91
2019-01-27T11:04:40.873Z,976.83
2019-01-27T11:05:42.042Z,976.90
2019-01-27T11:06:40.823Z,976.94
2019-01-27T11:07:40.766Z,976.95
2019-01-27T11:08:40.730Z,976.92
2019-01-27T11:09:40.711Z,976.84
2019-01-27T11:10:40.670Z,976.84
2019-01-27T11:11:40.647Z,976.91
2019-01-27T11:12:40.585Z,976.93
2019-01-27T11:13:40.550Z,976.93
2019-01-27T11:14:40.515Z,976.84
2019-01-27T11:15:40.480Z,976.88
2019-01-27T11:16:40.441Z,976.86
2019-01-27T11:17:40.413Z,976.89
2019-01-27T11:18:40.373Z,976.85
2019-01-27T11:19:40.336Z,976.95
2019-01-27T11:20:40.298Z,976.98
2019-01-27T11:21:40.263Z,976.94
2019-01-27T11:22:40.226Z,976.85
2019-01-27T11:23:40.191Z,976.90
2019-01-27T11:24:40.156Z,976.86
2019-01-27T11:25:40.116Z,976.84
2019-01-27T11:26:40.083Z,976.67
2019-01-27T11:27:40.049Z,976.77
2019-01-27T11:28:40.012Z,976.75
2019-01-27T11:29:39.979Z,976.74
2019-01-27T11:30:39.957Z,976.62
2019-01-27T11:31:40.028Z,976.73
2019-01-27T11:32:39.867Z,976.74
2019-01-27T11:33:39.836Z,976.65
2019-01-27T11:34:39.803Z,976.72
2019-01-27T11:35:39.762Z,976.70
2019-01-27T11:36:39.722Z,976.62
2019-01-27T11:37:39.688Z,976.59
2019-01-27T11:38:39.660Z,976.72
2019-01-27T11:39:39.626Z,976.75
2019-01-27T11:40:39.583Z,976.64
2019-01-27T11:41:39.546Z,976.60
2019-01-27T11:42:39.508Z,976.65
2019-01-27T11:43:39.492Z,976.58
2019-01-27T11:44:39.433Z,976.66
2019-01-27T11:45:39.393Z,976.62
2019-01-27T11:46:39.363Z,976.73
2019-01-27T11:47:39.341Z,976.60
2019-01-27T11:48:39.302Z,976.62
2019-01-27T11:49:39.256Z,976.54
2019-01-27T11:50:39.216Z,976.65
2019-01-27T11:51:39.184Z,976.62
2019-01-27T11:52:39.141Z,976.60
2019-01-27T11:53:39.116Z,976.60
2019-01-27T11:54:39.080Z,976.51
2019-01-27T11:55:39.032Z,976.51
2019-01-27T11:56:39.610Z,976.56
2019-01-27T11:57:38.974Z,976.52
2019-01-27T11:58:39.610Z,976.54
2019-01-27T11:59:38.898Z,976.59
2019-01-27T12:00:39.610Z,976.50
2019-01-27T12:01:38.827Z,976.51
2019-01-27T12:02:38.783Z,976.49
2019-01-27T12:03:38.756Z,976.49
2019-01-27T12:04:38.713Z,976.25
2019-01-27T12:05:38.703Z,976.50
2019-01-27T12:06:38.647Z,976.47
2019-01-27T12:07:38.630Z,976.42
2019-01-27T12:08:38.577Z,976.46
2019-01-27T12:09:38.553Z,976.47
2019-01-27T12:10:38.513Z,976.44
2019-01-27T12:11:38.490Z,976.48
2019-01-27T12:12:38.435Z,976.62
2019-01-27T12:13:38.403Z,976.79
2019-01-27T12:14:38.367Z,976.95
2019-01-27T12:15:38.337Z,976.52
2019-01-27T12:16:38.325Z,976.94
2019-01-27T12:23:38.100Z,977.31
2019-01-27T12:39:37.604Z,977.30
2019-01-27T12:48:37.319Z,976.14
2019-01-27T13:11:36.638Z,976.00
2019-01-27T13:12:36.559Z,976.06
2019-01-27T13:15:36.470Z,976.09
2019-01-27T13:16:36.434Z,975.94
2019-01-27T13:17:36.414Z,976.02
2019-01-27T13:18:36.371Z,975.99
2019-01-27T13:19:36.335Z,975.99
2019-01-27T13:20:36.313Z,976.01
2019-01-27T13:21:36.269Z,976.09
2019-01-27T13:22:36.234Z,975.94
2019-01-27T13:23:36.195Z,976.00
2019-01-27T13:24:36.163Z,976.02
2019-01-27T13:25:36.124Z,976.01
2019-01-27T13:26:36.096Z,975.96
2019-01-27T13:27:36.059Z,975.96
2019-01-27T13:28:36.030Z,975.96
2019-01-27T13:29:35.993Z,975.98
2019-01-27T13:30:35.956Z,976.03
2019-01-27T13:31:35.919Z,975.99
2019-01-27T13:32:35.914Z,976.02
2019-01-27T13:33:35.847Z,975.92
2019-01-27T13:34:35.824Z,975.89
2019-01-27T13:35:38.828Z,975.97
2019-01-27T13:36:36.738Z,976.00
2019-01-27T13:37:35.714Z,975.96
2019-01-27T13:38:35.678Z,975.97
2019-01-27T13:39:35.664Z,975.96
2019-01-27T13:40:35.622Z,975.94
2019-01-27T13:41:35.579Z,975.97
2019-01-27T13:42:35.540Z,976.04
2019-01-27T13:43:35.499Z,976.01
2019-01-27T13:44:35.460Z,976.11
2019-01-27T13:45:35.423Z,976.01
2019-01-27T13:46:35.388Z,976.04
2019-01-27T13:47:35.360Z,976.07
2019-01-27T13:48:35.319Z,976.09
2019-01-27T13:49:35.288Z,976.00
2019-01-27T13:50:35.245Z,975.94
2019-01-27T13:51:35.210Z,976.05
2019-01-27T13:52:35.169Z,976.02
2019-01-27T13:53:35.190Z,976.02
2019-01-27T13:54:35.091Z,976.11
2019-01-27T13:55:35.061Z,976.08
2019-01-27T13:56:35.041Z,976.11
2019-01-27T13:57:34.994Z,976.14
2019-01-27T13:58:34.953Z,976.15
2019-01-27T13:59:34.925Z,976.04
2019-01-27T14:00:34.876Z,976.07
2019-01-27T14:01:34.839Z,976.11
2019-01-27T14:02:34.799Z,976.05